createdAt,value
2018-01-15T00:01:12.315Z,15.57
2018-01-15T00:03:39.060Z,14.00
2018-01-15T00:06:05.794Z,13.40
2018-01-15T00:08:32.537Z,14.77
2018-01-15T00:10:59.277Z,14.93
2018-01-15T00:13:25.997Z,14.55
2018-01-15T00:15:52.759Z,15.45
2018-01-15T00:18:19.515Z,13.57
2018-01-15T00:20:47.156Z,15.38
2018-01-15T00:23:13.870Z,15.05
2018-01-15T00:25:40.639Z,15.88
2018-01-15T00:28:07.385Z,13.52
2018-01-15T00:30:34.123Z,15.30
2018-01-15T00:33:00.861Z,16.15
2018-01-15T00:35:27.610Z,16.60
2018-01-15T00:37:54.338Z,13.73
2018-01-15T00:40:21.081Z,13.90
2018-01-15T00:42:47.825Z,15.93
2018-01-15T00:45:14.538Z,15.30
2018-01-15T00:47:41.328Z,15.43
2018-01-15T00:50:08.075Z,14.68
2018-01-15T00:52:34.805Z,15.63
2018-01-15T00:55:01.545Z,15.93
2018-01-15T00:57:28.278Z,13.82
2018-01-15T00:59:55.033Z,15.00
2018-01-15T01:02:21.770Z,14.73
2018-01-15T01:04:48.515Z,16.20
2018-01-15T01:07:15.232Z,15.90
2018-01-15T01:09:42.013Z,14.60
2018-01-15T01:12:08.745Z,14.38
2018-01-15T01:14:35.497Z,14.60
2018-01-15T01:17:02.241Z,17.00
2018-01-15T01:19:28.982Z,16.92
2018-01-15T01:21:55.720Z,13.98
2018-01-15T01:24:22.479Z,16.17
2018-01-15T01:26:49.233Z,16.73
2018-01-15T01:29:15.981Z,17.02
2018-01-15T01:31:42.731Z,15.95
2018-01-15T01:34:09.465Z,15.95
2018-01-15T01:36:36.196Z,16.45
2018-01-15T01:39:02.966Z,14.40
2018-01-15T01:41:29.700Z,18.48
2018-01-15T01:43:56.414Z,14.90
2018-01-15T01:46:23.159Z,15.20
2018-01-15T01:48:55.678Z,16.40
2018-01-15T01:51:22.414Z,15.27
2018-01-15T01:53:49.153Z,16.00
2018-01-15T01:56:15.882Z,15.43
2018-01-15T01:58:42.608Z,16.30
2018-01-15T02:01:09.361Z,15.27
2018-01-15T02:03:36.099Z,16.30
2018-01-15T02:06:02.830Z,16.23
2018-01-15T02:08:29.581Z,19.17
2018-01-15T02:10:56.331Z,16.00
2018-01-15T02:13:23.061Z,15.27
2018-01-15T02:15:49.817Z,15.23
2018-01-15T02:18:16.545Z,15.60
2018-01-15T02:20:43.266Z,16.00
2018-01-15T02:23:09.998Z,16.15
2018-01-15T02:25:36.786Z,16.45
2018-01-15T02:28:03.542Z,16.20
2018-01-15T02:30:30.286Z,16.50
2018-01-15T02:32:57.001Z,15.10
2018-01-15T02:35:23.749Z,13.88
2018-01-15T02:37:50.493Z,15.07
2018-01-15T02:40:17.232Z,13.40
2018-01-15T02:42:43.955Z,12.68
2018-01-15T02:45:10.690Z,14.02
2018-01-15T02:47:37.435Z,13.90
2018-01-15T02:50:04.205Z,12.98
2018-01-15T02:52:30.948Z,14.18
2018-01-15T02:54:57.686Z,12.80
2018-01-15T02:57:24.502Z,12.45
2018-01-15T02:59:51.242Z,12.30
2018-01-15T03:02:17.970Z,12.40
2018-01-15T03:04:44.700Z,13.30
2018-01-15T03:07:11.450Z,13.15
2018-01-15T03:09:38.168Z,12.15
2018-01-15T03:12:04.895Z,13.40
2018-01-15T03:14:31.629Z,12.30
2018-01-15T03:16:58.358Z,12.63
2018-01-15T03:19:25.081Z,11.63
2018-01-15T03:21:51.812Z,13.50
2018-01-15T03:24:18.545Z,11.70
2018-01-15T03:26:45.272Z,12.77
2018-01-15T03:29:12.015Z,13.75
2018-01-15T03:31:38.742Z,12.60
2018-01-15T03:34:05.483Z,14.05
2018-01-15T03:36:32.235Z,13.02
2018-01-15T03:38:58.986Z,12.60
2018-01-15T03:41:25.717Z,13.75
2018-01-15T03:43:52.445Z,13.70
2018-01-15T03:46:19.169Z,13.13
2018-01-15T03:48:45.918Z,13.20
2018-01-15T03:51:12.660Z,13.13
2018-01-15T03:53:39.397Z,12.80
2018-01-15T03:56:06.129Z,13.30
2018-01-15T03:58:32.853Z,13.43
2018-01-15T04:00:59.586Z,12.60
2018-01-15T04:03:26.301Z,12.45
2018-01-15T04:05:53.057Z,12.95
2018-01-15T04:08:19.773Z,13.02
2018-01-15T04:10:46.489Z,14.05
2018-01-15T04:13:13.242Z,12.23
2018-01-15T04:15:39.974Z,13.50
2018-01-15T04:18:06.721Z,14.40
2018-01-15T04:20:33.457Z,15.35
2018-01-15T04:23:00.227Z,12.40
2018-01-15T04:25:26.966Z,14.48
2018-01-15T04:27:53.705Z,13.75
2018-01-15T04:30:20.423Z,12.88
2018-01-15T04:32:47.140Z,14.77
2018-01-15T04:35:13.868Z,13.55
2018-01-15T04:37:40.581Z,13.57
2018-01-15T04:40:07.323Z,13.15
2018-01-15T04:42:34.067Z,13.80
2018-01-15T04:45:00.787Z,14.95
2018-01-15T04:47:27.534Z,13.43
2018-01-15T04:49:54.269Z,15.68
2018-01-15T04:52:21.012Z,13.82
2018-01-15T04:54:47.733Z,14.98
2018-01-15T04:57:14.471Z,16.65
2018-01-15T04:59:41.203Z,15.25
2018-01-15T05:02:07.944Z,16.12
2018-01-15T05:04:34.688Z,17.33
2018-01-15T05:07:01.422Z,16.17
2018-01-15T05:09:28.163Z,16.45
2018-01-15T05:11:54.906Z,16.40
2018-01-15T05:14:21.651Z,16.92
2018-01-15T05:16:48.386Z,16.30
2018-01-15T05:19:15.135Z,15.52
2018-01-15T05:21:41.893Z,16.10
2018-01-15T05:24:08.628Z,17.10
2018-01-15T05:26:35.362Z,15.00
2018-01-15T05:29:02.091Z,14.90
2018-01-15T05:31:28.817Z,14.27
2018-01-15T05:33:55.577Z,13.02
2018-01-15T05:36:22.310Z,13.02
2018-01-15T05:38:49.044Z,13.48
2018-01-15T05:41:15.781Z,13.32
2018-01-15T05:43:42.514Z,13.27
2018-01-15T05:46:09.269Z,12.27
2018-01-15T05:48:36.011Z,13.52
2018-01-15T05:51:02.781Z,13.68
2018-01-15T05:53:29.516Z,12.73
2018-01-15T05:55:56.259Z,13.73
2018-01-15T05:58:22.986Z,13.05
2018-01-15T06:00:49.718Z,13.85
2018-01-15T06:03:16.450Z,14.10
2018-01-15T06:05:43.203Z,14.35
2018-01-15T06:08:09.933Z,14.48
2018-01-15T06:10:36.682Z,14.77
2018-01-15T06:13:03.400Z,14.85
2018-01-15T06:15:30.126Z,14.57
2018-01-15T06:17:56.860Z,15.40
2018-01-15T06:20:23.580Z,14.15
2018-01-15T06:22:50.332Z,13.70
2018-01-15T06:25:17.051Z,13.45
2018-01-15T06:27:43.774Z,15.15
2018-01-15T06:30:10.510Z,14.73
2018-01-15T06:32:37.250Z,13.80
2018-01-15T06:35:03.990Z,13.80
2018-01-15T06:37:30.716Z,13.65
2018-01-15T06:39:57.476Z,13.35
2018-01-15T06:42:24.197Z,13.70
2018-01-15T06:44:50.917Z,14.20
2018-01-15T06:47:17.658Z,14.05
2018-01-15T06:49:44.371Z,14.82
2018-01-15T06:52:11.100Z,14.05
2018-01-15T06:54:37.838Z,15.15
2018-01-15T06:57:04.558Z,12.73
2018-01-15T06:59:31.305Z,13.95
2018-01-15T07:01:58.046Z,14.95
2018-01-15T07:04:24.807Z,13.93
2018-01-15T07:06:51.523Z,15.75
2018-01-15T07:09:18.292Z,14.80
2018-01-15T07:11:45.015Z,15.30
2018-01-15T07:14:11.724Z,13.90
2018-01-15T07:16:38.449Z,13.57
2018-01-15T07:19:05.178Z,13.18
2018-01-15T07:21:31.901Z,14.50
2018-01-15T07:23:58.642Z,14.18
2018-01-15T07:26:25.360Z,13.57
2018-01-15T07:28:52.081Z,14.40
2018-01-15T07:31:18.823Z,14.18
2018-01-15T07:33:45.540Z,15.02
2018-01-15T07:36:12.281Z,13.27
2018-01-15T07:38:39.027Z,14.02
2018-01-15T07:41:05.764Z,13.25
2018-01-15T07:43:32.556Z,15.32
2018-01-15T07:45:59.299Z,15.20
2018-01-15T07:48:26.047Z,13.98
2018-01-15T07:50:52.761Z,15.30
2018-01-15T07:53:19.537Z,15.15
2018-01-15T07:55:46.259Z,13.68
2018-01-15T07:58:12.991Z,14.52
2018-01-15T08:00:39.749Z,13.20
2018-01-15T08:03:06.464Z,15.50
2018-01-15T08:05:33.206Z,14.57
2018-01-15T08:07:59.982Z,15.30
2018-01-15T08:10:26.720Z,15.50
2018-01-15T08:12:53.445Z,14.75
2018-01-15T08:15:20.180Z,14.40
2018-01-15T08:17:46.897Z,15.40
2018-01-15T08:20:13.604Z,15.88
2018-01-15T08:22:40.358Z,16.27
2018-01-15T08:25:07.077Z,14.93
2018-01-15T08:27:33.882Z,17.27
2018-01-15T08:30:00.632Z,14.70
2018-01-15T08:32:27.363Z,16.52
2018-01-15T08:34:54.116Z,14.80
2018-01-15T08:37:20.838Z,15.70
2018-01-15T08:39:47.564Z,14.52
2018-01-15T08:42:14.287Z,15.05
2018-01-15T08:44:41.019Z,15.50
2018-01-15T08:47:07.783Z,15.70
2018-01-15T08:49:34.501Z,15.45
2018-01-15T08:52:01.239Z,15.35
2018-01-15T08:54:27.979Z,15.77
2018-01-15T08:56:54.697Z,16.77
2018-01-15T08:59:21.449Z,16.50
2018-01-15T09:01:48.193Z,15.73
2018-01-15T09:04:14.931Z,17.70
2018-01-15T09:06:41.680Z,17.37
2018-01-15T09:09:08.430Z,16.87
2018-01-15T09:11:35.158Z,17.77
2018-01-15T09:14:01.909Z,18.02
2018-01-15T09:16:28.643Z,16.20
2018-01-15T09:18:55.361Z,17.73
2018-01-15T09:21:22.101Z,16.73
2018-01-15T09:23:48.836Z,16.33
2018-01-15T09:26:15.568Z,17.33
2018-01-15T09:28:42.313Z,16.80
2018-01-15T09:31:09.058Z,17.73
2018-01-15T09:33:35.786Z,15.77
2018-01-15T09:36:02.537Z,17.10
2018-01-15T09:38:29.253Z,16.80
2018-01-15T09:40:55.974Z,17.08
2018-01-15T09:43:22.733Z,17.48
2018-01-15T09:45:49.456Z,17.50
2018-01-15T09:48:16.197Z,17.45
2018-01-15T09:50:42.940Z,18.42
2018-01-15T09:53:09.682Z,17.97
2018-01-15T09:55:36.421Z,15.65
2018-01-15T09:58:03.167Z,15.97
2018-01-15T10:00:29.882Z,16.85
2018-01-15T10:02:56.600Z,14.70
2018-01-15T10:05:23.343Z,15.02
2018-01-15T10:07:50.071Z,14.80
2018-01-15T10:10:16.799Z,14.77
2018-01-15T10:12:43.546Z,15.95
2018-01-15T10:15:10.383Z,14.77
2018-01-15T10:17:37.102Z,15.37
2018-01-15T10:20:03.829Z,15.37
2018-01-15T10:22:30.546Z,13.70
2018-01-15T10:24:57.285Z,14.43
2018-01-15T10:27:24.030Z,13.05
2018-01-15T10:29:50.764Z,10.43
2018-01-15T10:32:17.486Z,11.93
2018-01-15T10:34:44.247Z,13.00
2018-01-15T10:37:11.052Z,13.47
2018-01-15T10:39:37.786Z,14.32
2018-01-15T10:42:04.541Z,13.87
2018-01-15T10:44:31.274Z,14.60
2018-01-15T10:46:57.963Z,11.73
2018-01-15T10:49:24.682Z,12.00
2018-01-15T10:51:51.396Z,12.95
2018-01-15T10:54:18.089Z,11.85
2018-01-15T10:56:44.793Z,12.88
2018-01-15T10:59:11.493Z,13.85
2018-01-15T11:01:38.190Z,13.18
2018-01-15T11:04:04.914Z,12.27
2018-01-15T11:06:31.606Z,13.60
2018-01-15T11:08:58.298Z,14.48
2018-01-15T11:11:25.009Z,13.50
2018-01-15T11:13:51.690Z,13.60
2018-01-15T11:16:18.370Z,13.25
2018-01-15T11:18:45.079Z,12.37
2018-01-15T11:21:11.814Z,11.95
2018-01-15T11:23:38.567Z,13.80
2018-01-15T11:26:05.257Z,13.35
2018-01-15T11:28:31.982Z,14.30
2018-01-15T11:30:58.680Z,14.13
2018-01-15T11:33:25.397Z,14.75
2018-01-15T11:35:52.095Z,13.88
2018-01-15T11:38:18.789Z,15.13
2018-01-15T11:40:45.496Z,16.00
2018-01-15T11:43:12.189Z,15.45
2018-01-15T11:45:38.886Z,16.00
2018-01-15T11:48:05.629Z,14.63
2018-01-15T11:50:32.329Z,14.50
2018-01-15T11:52:59.029Z,15.02
2018-01-15T11:55:25.726Z,13.68
2018-01-15T11:57:52.407Z,15.00
2018-01-15T12:00:19.109Z,12.32
2018-01-15T12:02:45.817Z,14.07
2018-01-15T12:05:12.516Z,13.15
2018-01-15T12:07:39.217Z,13.40
2018-01-15T12:10:05.927Z,12.88
2018-01-15T12:12:32.668Z,14.15
2018-01-15T12:14:59.350Z,14.63
2018-01-15T12:17:26.085Z,14.32
2018-01-15T12:19:52.770Z,13.43
2018-01-15T12:22:19.467Z,14.13
2018-01-15T12:24:46.167Z,13.45
2018-01-15T12:27:12.871Z,13.88
2018-01-15T12:29:39.568Z,13.68
2018-01-15T12:32:06.283Z,15.17
2018-01-15T12:34:32.977Z,14.33
2018-01-15T12:36:59.673Z,12.73
2018-01-15T12:39:26.377Z,14.20
2018-01-15T12:41:53.053Z,14.13
2018-01-15T12:44:19.749Z,13.90
2018-01-15T12:46:46.444Z,12.53
2018-01-15T12:49:13.138Z,12.47
2018-01-15T12:51:39.829Z,12.80
2018-01-15T12:54:06.543Z,12.73
2018-01-15T12:56:33.267Z,11.50
2018-01-15T12:59:00.053Z,11.60
2018-01-15T13:01:26.804Z,10.33
2018-01-15T13:03:53.517Z,11.77
2018-01-15T13:06:20.261Z,12.50
2018-01-15T13:08:49.020Z,13.30
2018-01-15T13:11:15.725Z,12.53
2018-01-15T13:13:42.449Z,12.70
2018-01-15T13:16:09.162Z,12.50
2018-01-15T13:18:35.890Z,11.90
2018-01-15T13:21:02.592Z,12.33
2018-01-15T13:23:29.318Z,11.17
2018-01-15T13:25:56.044Z,13.80
2018-01-15T13:28:22.762Z,11.53
2018-01-15T13:30:49.504Z,11.12
2018-01-15T13:33:16.221Z,13.23
2018-01-15T13:35:42.937Z,11.90
2018-01-15T13:38:09.670Z,14.10
2018-01-15T13:40:36.400Z,13.23
2018-01-15T13:43:03.116Z,12.63
2018-01-15T13:45:29.825Z,13.00
2018-01-15T13:47:56.555Z,12.10
2018-01-15T13:50:23.297Z,17.10
2018-01-15T13:52:50.060Z,14.87
2018-01-15T13:55:16.785Z,14.33
2018-01-15T13:57:43.500Z,14.57
2018-01-15T14:00:10.331Z,13.97
2018-01-15T14:02:37.061Z,12.85
2018-01-15T14:05:03.790Z,16.50
2018-01-15T14:07:30.512Z,15.50
2018-01-15T14:09:57.255Z,14.17
2018-01-15T14:12:23.992Z,16.00
2018-01-15T14:14:50.722Z,16.50
2018-01-15T14:17:17.450Z,14.70
2018-01-15T14:19:44.194Z,16.40
2018-01-15T14:22:10.926Z,14.90
2018-01-15T14:24:37.651Z,16.80
2018-01-15T14:27:04.372Z,15.70
2018-01-15T14:29:31.131Z,15.75
2018-01-15T14:31:57.851Z,16.62
2018-01-15T14:34:24.570Z,16.37
2018-01-15T14:36:51.355Z,14.60
2018-01-15T14:39:18.093Z,15.30
2018-01-15T14:41:44.825Z,15.38
2018-01-15T14:44:11.617Z,15.00
2018-01-15T14:46:38.346Z,14.52
2018-01-15T14:49:05.065Z,15.57
2018-01-15T14:51:31.809Z,15.50
2018-01-15T14:53:58.550Z,16.37
2018-01-15T14:56:25.273Z,17.60
2018-01-15T14:58:52.016Z,16.33
2018-01-15T15:01:18.761Z,16.08
2018-01-15T15:03:45.487Z,16.80
2018-01-15T15:06:12.229Z,16.25
2018-01-15T15:08:38.962Z,18.87
2018-01-15T15:11:05.682Z,17.77
2018-01-15T15:13:32.427Z,17.12
2018-01-15T15:15:59.170Z,16.75
2018-01-15T15:18:25.905Z,18.80
2018-01-15T15:20:52.640Z,18.33
2018-01-15T15:23:19.368Z,18.37
2018-01-15T15:25:46.090Z,18.27
2018-01-15T15:28:12.817Z,17.67
2018-01-15T15:30:39.550Z,18.00
2018-01-15T15:33:06.287Z,16.80
2018-01-15T15:35:33.054Z,17.42
2018-01-15T15:37:59.866Z,19.20
2018-01-15T15:40:26.595Z,17.65
2018-01-15T15:42:53.343Z,18.42
2018-01-15T15:45:20.065Z,17.55
2018-01-15T15:47:46.819Z,17.35
2018-01-15T15:50:13.571Z,20.05
2018-01-15T15:52:40.310Z,19.23
2018-01-15T15:55:07.032Z,17.55
2018-01-15T15:57:33.774Z,18.73
2018-01-15T16:00:00.509Z,17.80
2018-01-15T16:02:27.236Z,17.83
2018-01-15T16:04:54.004Z,17.48
2018-01-15T16:07:20.730Z,18.52
2018-01-15T16:09:47.449Z,18.08
2018-01-15T16:12:14.187Z,19.52
2018-01-15T16:14:40.930Z,18.05
2018-01-15T16:17:07.666Z,17.55
2018-01-15T16:19:34.426Z,18.65
2018-01-15T16:22:10.511Z,17.02
2018-01-15T16:24:37.289Z,17.65
2018-01-15T16:27:04.019Z,18.92
2018-01-15T16:29:30.784Z,19.05
2018-01-15T16:31:57.543Z,19.10
2018-01-15T16:34:24.278Z,18.92
2018-01-15T16:36:51.014Z,19.02
2018-01-15T16:39:17.803Z,19.73
2018-01-15T16:41:44.543Z,18.62
2018-01-15T16:44:11.273Z,20.10
2018-01-15T16:46:38.016Z,18.37
2018-01-15T16:49:04.743Z,20.75
2018-01-15T16:51:31.502Z,19.60
2018-01-15T16:53:58.274Z,19.10
2018-01-15T16:56:25.019Z,20.30
2018-01-15T16:58:51.793Z,19.33
2018-01-15T17:01:18.574Z,19.48
2018-01-15T17:03:45.332Z,19.87
2018-01-15T17:06:12.082Z,19.52
2018-01-15T17:08:38.870Z,20.73
2018-01-15T17:11:05.598Z,19.50
2018-01-15T17:13:32.355Z,20.30
2018-01-15T17:15:59.100Z,20.33
2018-01-15T17:18:25.841Z,20.62
2018-01-15T17:20:52.579Z,18.67
2018-01-15T17:23:19.331Z,21.40
2018-01-15T17:25:46.065Z,19.52
2018-01-15T17:28:12.815Z,22.23
2018-01-15T17:30:39.599Z,18.92
2018-01-15T17:33:06.326Z,21.98
2018-01-15T17:35:33.059Z,19.50
2018-01-15T17:37:59.793Z,23.05
2018-01-15T17:40:26.518Z,21.15
2018-01-15T17:42:53.260Z,21.23
2018-01-15T17:45:20.011Z,22.15
2018-01-15T17:47:46.768Z,20.70
2018-01-15T17:50:13.500Z,24.17
2018-01-15T17:52:40.249Z,21.95
2018-01-15T17:55:07.025Z,22.92
2018-01-15T17:57:33.768Z,20.80
2018-01-15T18:00:00.540Z,20.73
2018-01-15T18:02:27.338Z,21.42
2018-01-15T18:04:54.086Z,20.95
2018-01-15T18:07:20.809Z,22.05
2018-01-15T18:09:47.532Z,22.40
2018-01-15T18:12:14.357Z,22.90
2018-01-15T18:14:41.127Z,22.92
2018-01-15T18:17:07.868Z,22.85
2018-01-15T18:19:34.610Z,22.62
2018-01-15T18:22:01.359Z,24.20
2018-01-15T18:24:28.077Z,25.00
2018-01-15T18:26:54.805Z,21.83
2018-01-15T18:29:21.613Z,21.20
2018-01-15T18:31:48.348Z,23.10
2018-01-15T18:34:15.066Z,23.15
2018-01-15T18:36:41.829Z,23.80
2018-01-15T18:39:08.556Z,23.05
2018-01-15T18:41:35.285Z,23.48
2018-01-15T18:44:02.019Z,24.40
2018-01-15T18:46:28.775Z,22.42
2018-01-15T18:48:55.505Z,23.20
2018-01-15T18:51:22.245Z,24.73
2018-01-15T18:53:48.956Z,23.50
2018-01-15T18:56:15.705Z,24.23
2018-01-15T18:58:42.444Z,25.08
2018-01-15T19:01:09.162Z,26.42
2018-01-15T19:03:35.900Z,26.52
2018-01-15T19:06:02.643Z,26.12
2018-01-15T19:08:29.402Z,24.52
2018-01-15T19:10:56.198Z,26.62
2018-01-15T19:13:22.914Z,26.15
2018-01-15T19:15:49.662Z,25.27
2018-01-15T19:18:16.516Z,27.83
2018-01-15T19:20:43.309Z,24.75
2018-01-15T19:23:10.070Z,26.95
2018-01-15T19:25:36.817Z,26.17
2018-01-15T19:28:03.626Z,28.08
2018-01-15T19:30:30.397Z,26.37
2018-01-15T19:32:57.157Z,26.40
2018-01-15T19:35:42.791Z,26.98
2018-01-15T19:38:10.285Z,27.25
2018-01-15T19:40:37.085Z,26.02
2018-01-15T19:43:05.769Z,26.42
2018-01-15T19:45:38.358Z,25.95
2018-01-15T19:48:10.867Z,24.80
2018-01-15T19:50:43.455Z,27.98
2018-01-15T19:53:15.884Z,25.02
2018-01-15T19:55:48.565Z,25.15
2018-01-15T19:58:21.001Z,25.60
2018-01-15T20:00:53.387Z,25.37
2018-01-15T20:03:25.868Z,30.95
2018-01-15T20:05:58.442Z,28.17
2018-01-15T20:08:31.110Z,25.58
2018-01-15T20:10:59.455Z,27.30
2018-01-15T20:13:26.232Z,26.27
2018-01-15T20:15:53.089Z,24.92
2018-01-15T20:18:19.851Z,27.05
2018-01-15T20:20:46.597Z,27.37
2018-01-15T20:23:13.336Z,28.98
2018-01-15T20:25:40.125Z,26.25
2018-01-15T20:28:06.849Z,26.85
2018-01-15T20:30:33.609Z,24.40
2018-01-15T20:33:00.362Z,25.62
2018-01-15T20:35:27.106Z,26.12
2018-01-15T20:37:53.842Z,26.23
2018-01-15T20:40:20.589Z,28.38
2018-01-15T20:42:47.319Z,25.85
2018-01-15T20:45:14.070Z,24.45
2018-01-15T20:47:40.809Z,24.12
2018-01-15T20:50:07.554Z,25.80
2018-01-15T20:52:34.298Z,26.98
2018-01-15T20:55:01.079Z,24.55
2018-01-15T20:57:27.800Z,24.60
2018-01-15T20:59:54.542Z,22.92
2018-01-15T21:02:21.283Z,24.98
2018-01-15T21:04:48.026Z,23.30
2018-01-15T21:07:14.774Z,23.55
2018-01-15T21:09:41.503Z,23.92
2018-01-15T21:12:08.246Z,20.62
2018-01-15T21:14:35.005Z,23.25
2018-01-15T21:17:01.749Z,21.95
2018-01-15T21:19:28.488Z,22.95
2018-01-15T21:21:55.246Z,21.20
2018-01-15T21:24:22.060Z,23.05
2018-01-15T21:26:48.787Z,21.45
2018-01-15T21:29:15.553Z,23.35
2018-01-15T21:31:42.285Z,22.10
2018-01-15T21:34:09.017Z,20.90
2018-01-15T21:36:35.788Z,21.12
2018-01-15T21:39:02.631Z,22.87
2018-01-15T21:41:29.367Z,23.70
2018-01-15T21:43:56.095Z,20.33
2018-01-15T21:46:22.809Z,23.30
2018-01-15T21:48:49.525Z,23.15
2018-01-15T21:51:16.285Z,20.77
2018-01-15T21:53:43.050Z,21.33
2018-01-15T21:56:09.785Z,21.52
2018-01-15T21:58:36.528Z,19.25
2018-01-15T22:01:03.285Z,19.48
2018-01-15T22:03:30.028Z,18.50
2018-01-15T22:05:56.804Z,18.70
2018-01-15T22:08:23.530Z,18.98
2018-01-15T22:10:50.255Z,22.25
2018-01-15T22:13:17.384Z,19.02
2018-01-15T22:15:44.125Z,18.67
2018-01-15T22:18:10.877Z,17.62
2018-01-15T22:20:37.606Z,21.10
2018-01-15T22:23:04.345Z,20.27
2018-01-15T22:25:31.061Z,18.62
2018-01-15T22:27:57.789Z,20.85
2018-01-15T22:30:24.523Z,20.30
2018-01-15T22:32:51.241Z,21.92
2018-01-15T22:35:18.011Z,22.08
2018-01-15T22:37:44.733Z,20.95
2018-01-15T22:40:11.454Z,19.27
2018-01-15T22:42:38.174Z,19.95
2018-01-15T22:45:04.899Z,20.15
2018-01-15T22:47:31.629Z,21.92
2018-01-15T22:49:58.389Z,20.55
2018-01-15T22:52:25.106Z,20.88
2018-01-15T22:54:51.858Z,21.40
2018-01-15T22:57:18.660Z,21.30
2018-01-15T22:59:45.417Z,23.87
2018-01-15T23:02:12.149Z,24.02
2018-01-15T23:04:38.932Z,22.13
2018-01-15T23:07:05.662Z,21.90
2018-01-15T23:09:32.410Z,20.05
2018-01-15T23:11:59.139Z,19.95
2018-01-15T23:14:25.917Z,24.77
2018-01-15T23:16:53.579Z,25.90
2018-01-15T23:19:20.334Z,26.08
2018-01-15T23:21:47.057Z,26.77
2018-01-15T23:24:13.896Z,26.60
2018-01-15T23:26:40.638Z,27.83
2018-01-15T23:29:07.473Z,29.83
2018-01-15T23:31:34.205Z,30.10
2018-01-15T23:34:01.056Z,28.35
2018-01-15T23:36:27.766Z,28.67
2018-01-15T23:38:54.508Z,26.90
2018-01-15T23:41:21.243Z,31.35
2018-01-15T23:43:47.957Z,30.40
2018-01-15T23:46:14.682Z,29.65
2018-01-15T23:48:41.427Z,30.35
2018-01-15T23:51:08.173Z,29.37
2018-01-15T23:53:34.902Z,29.10
2018-01-15T23:56:01.662Z,28.95
2018-01-15T23:58:28.392Z,28.92
